createdAt,value
2022-09-09T00:02:06.095Z,15.00
2022-09-09T00:04:35.696Z,15.10
2022-09-09T00:07:11.505Z,15.00
2022-09-09T00:09:59.691Z,15.00
2022-09-09T00:12:43.346Z,15.00
2022-09-09T00:15:17.881Z,15.00
2022-09-09T00:17:48.410Z,15.00
2022-09-09T00:20:27.078Z,14.90
2022-09-09T00:23:00.274Z,14.90
2022-09-09T00:25:38.189Z,15.00
2022-09-09T00:28:17.073Z,15.00
2022-09-09T00:30:45.142Z,15.00
2022-09-09T00:33:16.223Z,15.00
2022-09-09T00:35:48.614Z,15.00
2022-09-09T00:38:19.176Z,15.10
2022-09-09T00:41:18.388Z,15.10
2022-09-09T00:43:56.753Z,15.20
2022-09-09T00:46:26.453Z,15.10
2022-09-09T00:49:10.297Z,15.20
2022-09-09T00:52:14.824Z,15.20
2022-09-09T00:55:07.368Z,15.20
2022-09-09T00:57:36.269Z,15.10
2022-09-09T01:00:25.160Z,15.20
2022-09-09T01:03:12.537Z,15.20
2022-09-09T01:06:06.896Z,15.20
2022-09-09T01:08:48.768Z,15.20
2022-09-09T01:11:27.151Z,15.20
2022-09-09T01:14:02.846Z,15.20
2022-09-09T01:16:31.165Z,15.30
2022-09-09T01:19:00.658Z,15.20
2022-09-09T01:21:45.970Z,15.20
2022-09-09T01:24:43.367Z,15.30
2022-09-09T01:27:11.521Z,15.30
2022-09-09T01:29:38.795Z,15.30
2022-09-09T01:32:39.189Z,15.30
2022-09-09T01:35:10.004Z,15.30
2022-09-09T01:37:36.836Z,15.30
2022-09-09T01:40:04.002Z,15.30
2022-09-09T01:42:30.897Z,15.20
2022-09-09T01:44:57.707Z,15.20
2022-09-09T01:47:24.750Z,15.20
2022-09-09T01:49:51.518Z,15.20
2022-09-09T01:52:18.386Z,15.20
2022-09-09T01:54:45.195Z,15.20
2022-09-09T01:57:40.572Z,15.30
2022-09-09T02:00:13.759Z,15.30
2022-09-09T02:02:57.861Z,15.20
2022-09-09T02:05:40.599Z,15.20
2022-09-09T02:08:12.354Z,15.20
2022-09-09T02:10:53.021Z,15.30
2022-09-09T02:13:22.854Z,15.20
2022-09-09T02:16:01.741Z,15.20
2022-09-09T02:18:44.014Z,15.30
2022-09-09T02:21:12.800Z,15.30
2022-09-09T02:23:42.881Z,15.30
2022-09-09T02:26:14.302Z,15.30
2022-09-09T02:28:43.216Z,15.30
2022-09-09T02:31:10.430Z,15.30
2022-09-09T02:33:43.880Z,15.30
2022-09-09T02:36:13.365Z,15.30
2022-09-09T02:38:53.917Z,15.30
2022-09-09T02:41:33.032Z,15.30
2022-09-09T02:43:59.841Z,15.30
2022-09-09T02:46:56.695Z,15.30
2022-09-09T02:49:29.612Z,15.30
2022-09-09T02:52:07.481Z,15.30
2022-09-09T02:54:40.085Z,15.40
2022-09-09T02:57:18.534Z,15.40
2022-09-09T02:59:47.116Z,15.40
2022-09-09T03:02:14.258Z,15.30
2022-09-09T03:04:42.831Z,15.40
2022-09-09T03:07:10.568Z,15.40
2022-09-09T03:09:37.494Z,15.30
2022-09-09T03:12:08.179Z,15.30
2022-09-09T03:14:34.944Z,15.30
2022-09-09T03:17:03.426Z,15.40
2022-09-09T03:19:30.960Z,15.40
2022-09-09T03:21:58.329Z,15.40
2022-09-09T03:24:26.252Z,15.40
2022-09-09T03:26:53.227Z,15.30
2022-09-09T03:29:20.341Z,15.40
2022-09-09T03:31:47.394Z,15.30
2022-09-09T03:34:14.794Z,15.40
2022-09-09T03:36:42.227Z,15.40
2022-09-09T03:39:09.036Z,15.40
2022-09-09T03:41:35.801Z,15.40
2022-09-09T03:44:02.868Z,15.40
2022-09-09T03:46:29.749Z,15.30
2022-09-09T03:48:56.692Z,15.40
2022-09-09T03:51:23.622Z,15.30
2022-09-09T03:53:50.507Z,15.30
2022-09-09T03:56:17.368Z,15.30
2022-09-09T03:58:45.082Z,15.40
2022-09-09T04:01:14.674Z,15.40
2022-09-09T04:03:42.396Z,15.40
2022-09-09T04:06:11.853Z,15.40
2022-09-09T04:08:39.592Z,15.40
2022-09-09T04:11:07.489Z,15.40
2022-09-09T04:13:36.182Z,15.50
2022-09-09T04:16:04.893Z,15.40
2022-09-09T04:18:31.937Z,15.40
2022-09-09T04:20:59.210Z,15.40
2022-09-09T04:23:30.481Z,15.40
2022-09-09T04:25:59.279Z,15.30
2022-09-09T04:28:28.540Z,15.30
2022-09-09T04:30:55.671Z,15.30
2022-09-09T04:33:22.575Z,15.30
2022-09-09T04:35:50.960Z,15.30
2022-09-09T04:38:18.581Z,15.30
2022-09-09T04:40:48.153Z,15.30
2022-09-09T04:43:19.031Z,15.30
2022-09-09T04:45:49.138Z,15.20
2022-09-09T04:48:16.565Z,15.30
2022-09-09T04:50:43.455Z,15.30
2022-09-09T04:53:10.893Z,15.30
2022-09-09T04:55:37.794Z,15.30
2022-09-09T04:58:09.348Z,15.30
2022-09-09T05:00:37.196Z,15.30
2022-09-09T05:03:08.132Z,15.30
2022-09-09T05:05:35.556Z,15.30
2022-09-09T05:08:07.010Z,15.30
2022-09-09T05:10:35.050Z,15.30
2022-09-09T05:13:01.919Z,15.40
2022-09-09T05:15:28.792Z,15.40
2022-09-09T05:18:03.517Z,15.40
2022-09-09T05:20:30.541Z,15.40
2022-09-09T05:22:57.999Z,15.40
2022-09-09T05:25:28.071Z,15.40
2022-09-09T05:27:54.980Z,15.50
2022-09-09T05:30:25.770Z,15.40
2022-09-09T05:32:52.897Z,15.40
2022-09-09T05:35:20.216Z,15.40
2022-09-09T05:37:47.167Z,15.40
2022-09-09T05:40:14.209Z,15.50
2022-09-09T05:42:41.846Z,15.40
2022-09-09T05:45:09.972Z,15.40
2022-09-09T05:47:38.335Z,15.40
2022-09-09T05:50:05.988Z,15.40
2022-09-09T05:52:33.700Z,15.40
2022-09-09T05:55:00.826Z,15.50
2022-09-09T05:57:27.731Z,15.50
2022-09-09T05:59:54.815Z,15.50
2022-09-09T06:02:21.832Z,15.50
2022-09-09T06:04:48.818Z,15.50
2022-09-09T06:07:15.892Z,15.60
2022-09-09T06:09:42.817Z,15.70
2022-09-09T06:12:10.167Z,15.80
2022-09-09T06:14:37.909Z,15.90
2022-09-09T06:17:04.988Z,16.00
2022-09-09T06:19:32.026Z,16.10
2022-09-09T06:21:59.707Z,16.10
2022-09-09T06:24:26.592Z,16.10
2022-09-09T06:26:53.450Z,16.10
2022-09-09T06:29:20.482Z,16.10
2022-09-09T06:31:48.810Z,16.10
2022-09-09T06:34:16.237Z,16.10
2022-09-09T06:36:43.635Z,16.20
2022-09-09T06:39:14.676Z,16.20
2022-09-09T06:41:43.621Z,16.20
2022-09-09T06:44:12.807Z,16.20
2022-09-09T06:46:40.855Z,16.20
2022-09-09T06:49:09.583Z,16.20
2022-09-09T06:51:43.496Z,16.10
2022-09-09T06:54:11.804Z,16.20
2022-09-09T06:56:44.348Z,16.30
2022-09-09T06:59:11.904Z,16.30
2022-09-09T07:01:44.968Z,16.30
2022-09-09T07:04:12.555Z,16.30
2022-09-09T07:06:42.092Z,16.30
2022-09-09T07:09:11.624Z,16.50
2022-09-09T07:11:42.810Z,16.50
2022-09-09T07:14:12.965Z,16.50
2022-09-09T07:16:40.486Z,16.40
2022-09-09T07:19:08.458Z,16.50
2022-09-09T07:21:35.779Z,16.50
2022-09-09T07:24:03.441Z,16.60
2022-09-09T07:26:31.707Z,16.60
2022-09-09T07:28:59.088Z,16.60
2022-09-09T07:31:35.754Z,16.60
2022-09-09T07:34:03.564Z,16.60
2022-09-09T07:36:33.835Z,16.60
2022-09-09T07:39:10.100Z,16.60
2022-09-09T07:41:42.354Z,16.40
2022-09-09T07:44:18.069Z,16.10
2022-09-09T07:46:46.435Z,15.90
2022-09-09T07:49:14.203Z,15.90
2022-09-09T07:51:44.438Z,15.90
2022-09-09T07:54:13.962Z,15.90
2022-09-09T07:56:42.006Z,15.90
2022-09-09T07:59:09.750Z,15.90
2022-09-09T08:01:40.441Z,16.00
2022-09-09T08:04:27.485Z,16.20
2022-09-09T08:06:59.834Z,16.30
2022-09-09T08:09:30.076Z,16.40
2022-09-09T08:11:57.602Z,16.50
2022-09-09T08:14:24.588Z,16.60
2022-09-09T08:16:54.972Z,16.80
2022-09-09T08:19:22.313Z,16.80
2022-09-09T08:21:50.118Z,16.80
2022-09-09T08:24:17.230Z,16.80
2022-09-09T08:26:47.232Z,16.70
2022-09-09T08:29:15.063Z,16.80
2022-09-09T08:31:47.951Z,16.80
2022-09-09T08:34:16.092Z,16.80
2022-09-09T08:36:45.769Z,16.80
2022-09-09T08:39:15.435Z,16.70
2022-09-09T08:42:03.416Z,16.60
2022-09-09T08:44:58.594Z,16.50
2022-09-09T08:47:52.882Z,16.40
2022-09-09T08:50:33.523Z,16.20
2022-09-09T08:53:09.344Z,16.10
2022-09-09T08:55:46.258Z,16.00
2022-09-09T08:58:31.620Z,16.00
2022-09-09T09:01:00.757Z,16.00
2022-09-09T09:03:49.402Z,16.00
2022-09-09T09:07:04.015Z,16.00
2022-09-09T09:09:42.960Z,16.00
2022-09-09T09:12:21.466Z,15.90
2022-09-09T09:14:49.879Z,16.00
2022-09-09T09:17:21.840Z,16.00
2022-09-09T09:19:50.781Z,16.00
2022-09-09T09:22:33.920Z,16.00
2022-09-09T09:25:11.023Z,16.00
2022-09-09T09:28:06.240Z,16.10
2022-09-09T09:31:12.306Z,16.10
2022-09-09T09:33:42.008Z,16.10
2022-09-09T09:36:09.606Z,16.10
2022-09-09T09:41:42.396Z,16.10
2022-09-09T09:44:43.109Z,16.10
2022-09-09T09:47:21.468Z,16.00
2022-09-09T09:49:56.351Z,16.00
2022-09-09T09:52:31.366Z,16.00
2022-09-09T09:55:06.871Z,16.10
2022-09-09T09:57:35.480Z,16.10
2022-09-09T10:00:15.765Z,16.20
2022-09-09T10:02:45.047Z,16.20
2022-09-09T10:05:25.753Z,16.20
2022-09-09T10:08:12.822Z,16.30
2022-09-09T10:11:01.114Z,16.40
2022-09-09T10:13:40.222Z,16.50
2022-09-09T10:16:40.958Z,16.60
2022-09-09T10:19:28.331Z,16.80
2022-09-09T10:22:20.080Z,16.80
2022-09-09T10:25:10.711Z,16.90
2022-09-09T10:28:06.068Z,17.00
2022-09-09T10:30:57.308Z,17.40
2022-09-09T10:33:50.636Z,17.70
2022-09-09T10:36:27.100Z,17.80
2022-09-09T10:39:03.324Z,18.00
2022-09-09T10:42:15.935Z,18.30
2022-09-09T10:44:48.371Z,18.50
2022-09-09T10:47:21.000Z,18.70
2022-09-09T10:50:19.688Z,18.80
2022-09-09T10:53:14.911Z,18.90
2022-09-09T10:55:49.553Z,18.90
2022-09-09T10:58:25.842Z,18.80
2022-09-09T11:01:01.202Z,18.90
2022-09-09T11:03:34.417Z,18.80
2022-09-09T11:06:03.518Z,18.70
2022-09-09T11:08:32.409Z,18.60
2022-09-09T11:11:18.920Z,18.60
2022-09-09T11:14:10.486Z,18.70
2022-09-09T11:16:37.280Z,18.60
2022-09-09T11:19:13.163Z,18.50
2022-09-09T11:21:46.854Z,18.60
2022-09-09T11:24:27.872Z,18.70
2022-09-09T11:27:07.932Z,18.70
2022-09-09T11:29:45.146Z,18.80
2022-09-09T11:32:46.166Z,18.70
2022-09-09T11:35:28.000Z,18.80
2022-09-09T11:38:19.311Z,18.70
2022-09-09T11:40:48.547Z,18.50
2022-09-09T11:43:20.221Z,18.40
2022-09-09T11:45:58.722Z,18.40
2022-09-09T11:48:37.965Z,18.30
2022-09-09T11:51:17.153Z,18.40
2022-09-09T11:53:53.149Z,18.30
2022-09-09T11:56:26.198Z,18.40
2022-09-09T11:59:01.355Z,18.50
2022-09-09T12:01:35.262Z,18.50
2022-09-09T12:04:10.433Z,18.40
2022-09-09T12:06:56.175Z,18.30
2022-09-09T12:09:32.862Z,18.30
2022-09-09T12:12:14.751Z,18.30
2022-09-09T12:15:08.840Z,18.20
2022-09-09T12:17:44.770Z,18.20
2022-09-09T12:20:22.415Z,18.20
2022-09-09T12:22:58.110Z,18.20
2022-09-09T12:25:54.147Z,18.20
2022-09-09T12:28:34.188Z,18.30
2022-09-09T12:31:26.641Z,18.30
2022-09-09T12:33:53.750Z,18.20
2022-09-09T12:36:25.620Z,18.20
2022-09-09T12:38:53.386Z,18.40
2022-09-09T12:41:25.957Z,18.50
2022-09-09T12:44:04.135Z,18.70
2022-09-09T12:46:44.745Z,18.80
2022-09-09T12:49:32.142Z,19.10
2022-09-09T12:51:59.662Z,19.10
2022-09-09T12:54:26.864Z,19.10
2022-09-09T12:56:53.771Z,19.10
2022-09-09T12:59:36.236Z,19.20
2022-09-09T13:02:03.379Z,19.60
2022-09-09T13:04:30.362Z,19.70
2022-09-09T13:07:08.184Z,19.60
2022-09-09T13:09:36.445Z,19.60
2022-09-09T13:12:06.273Z,19.70
2022-09-09T13:14:38.416Z,19.70
2022-09-09T13:17:07.339Z,20.00
2022-09-09T13:19:39.987Z,20.20
2022-09-09T13:22:21.292Z,20.40
2022-09-09T13:24:48.341Z,20.30
2022-09-09T13:27:54.348Z,20.10
2022-09-09T13:30:34.653Z,20.10
2022-09-09T13:33:24.065Z,20.30
2022-09-09T13:35:54.284Z,20.40
2022-09-09T13:38:27.033Z,20.90
2022-09-09T13:41:00.275Z,21.00
2022-09-09T13:43:28.050Z,21.00
2022-09-09T13:45:57.516Z,21.10
2022-09-09T13:48:25.176Z,21.70
2022-09-09T13:50:56.680Z,22.30
2022-09-09T13:53:23.649Z,22.30
2022-09-09T13:55:53.414Z,22.20
2022-09-09T13:58:20.828Z,22.10
2022-09-09T14:00:47.930Z,21.80
2022-09-09T14:03:15.034Z,21.70
2022-09-09T14:05:41.953Z,21.80
2022-09-09T14:08:14.683Z,21.70
2022-09-09T14:10:41.644Z,21.60
2022-09-09T14:13:09.371Z,22.00
2022-09-09T14:15:36.264Z,22.40
2022-09-09T14:18:03.268Z,22.50
2022-09-09T14:20:30.261Z,22.10
2022-09-09T14:23:03.222Z,21.50
2022-09-09T14:25:30.500Z,21.30
2022-09-09T14:27:57.583Z,20.90
2022-09-09T14:30:24.684Z,20.70
2022-09-09T14:32:51.693Z,20.60
2022-09-09T14:35:19.350Z,20.80
2022-09-09T14:37:46.256Z,21.20
2022-09-09T14:40:13.087Z,21.50
2022-09-09T14:42:39.989Z,21.70
2022-09-09T14:45:07.551Z,21.70
2022-09-09T14:47:34.677Z,21.60
2022-09-09T14:50:02.111Z,21.70
2022-09-09T14:52:30.511Z,21.70
2022-09-09T14:54:58.087Z,21.90
2022-09-09T14:57:24.931Z,21.90
2022-09-09T14:59:51.751Z,21.80
2022-09-09T15:02:18.618Z,22.00
2022-09-09T15:04:45.722Z,22.30
2022-09-09T15:07:12.872Z,22.40
2022-09-09T15:09:39.787Z,22.00
2022-09-09T15:12:06.860Z,21.90
2022-09-09T15:14:33.876Z,21.60
2022-09-09T15:17:00.857Z,21.30
2022-09-09T15:19:27.888Z,21.30
2022-09-09T15:21:56.187Z,21.20
2022-09-09T15:24:23.502Z,21.50
2022-09-09T15:26:50.477Z,21.60
2022-09-09T15:29:17.348Z,21.30
2022-09-09T15:31:44.161Z,21.10
2022-09-09T15:34:11.048Z,20.80
2022-09-09T15:36:42.851Z,20.70
2022-09-09T15:39:13.938Z,20.60
2022-09-09T15:41:41.273Z,20.50
2022-09-09T15:44:08.663Z,20.90
2022-09-09T15:46:43.109Z,21.40
2022-09-09T15:49:26.357Z,21.70
2022-09-09T15:51:55.714Z,21.70
2022-09-09T15:54:24.947Z,21.50
2022-09-09T15:56:55.822Z,21.10
2022-09-09T15:59:28.948Z,21.10
2022-09-09T16:01:56.392Z,21.00
2022-09-09T16:04:25.526Z,20.80
2022-09-09T16:06:54.048Z,20.80
2022-09-09T16:09:21.239Z,20.70
2022-09-09T16:11:48.661Z,20.50
2022-09-09T16:14:19.978Z,20.30
2022-09-09T16:16:46.912Z,20.10
2022-09-09T16:19:14.211Z,20.00
2022-09-09T16:21:45.167Z,19.90
2022-09-09T16:24:14.429Z,19.80
2022-09-09T16:26:46.158Z,19.40
2022-09-09T16:29:15.282Z,18.90
2022-09-09T16:31:42.735Z,18.70
2022-09-09T16:34:10.677Z,18.60
2022-09-09T16:36:42.659Z,18.50
2022-09-09T16:39:10.844Z,18.60
2022-09-09T16:41:38.905Z,18.60
2022-09-09T16:44:08.982Z,18.40
2022-09-09T16:46:39.803Z,18.40
2022-09-09T16:49:08.741Z,18.50
2022-09-09T16:51:54.141Z,18.60
2022-09-09T16:54:21.200Z,18.60
2022-09-09T16:56:49.219Z,18.70
2022-09-09T16:59:18.945Z,18.60
2022-09-09T17:01:48.056Z,18.70
2022-09-09T17:04:21.280Z,18.70
2022-09-09T17:06:52.820Z,18.90
2022-09-09T17:09:21.177Z,18.90
2022-09-09T17:11:49.206Z,18.80
2022-09-09T17:14:19.850Z,18.60
2022-09-09T17:16:47.891Z,18.60
2022-09-09T17:19:16.022Z,18.70
2022-09-09T17:22:05.807Z,18.60
2022-09-09T17:24:30.244Z,18.60
2022-09-09T17:26:58.358Z,18.70
2022-09-09T17:29:26.126Z,18.60
2022-09-09T17:31:56.589Z,18.70
2022-09-09T17:34:27.067Z,18.70
2022-09-09T17:36:54.869Z,18.60
2022-09-09T17:39:23.340Z,18.50
2022-09-09T17:41:55.655Z,18.50
2022-09-09T17:44:24.185Z,18.50
2022-09-09T17:46:55.716Z,18.50
2022-09-09T17:49:23.076Z,18.40
2022-09-09T17:51:49.983Z,18.30
2022-09-09T17:54:20.994Z,18.20
2022-09-09T17:56:48.881Z,18.20
2022-09-09T17:59:17.654Z,18.20
2022-09-09T18:01:48.357Z,18.00
2022-09-09T18:04:17.352Z,18.00
2022-09-09T18:06:50.250Z,17.90
2022-09-09T18:09:20.660Z,17.90
2022-09-09T18:11:50.363Z,18.00
2022-09-09T18:14:20.646Z,17.90
2022-09-09T18:16:49.203Z,17.90
2022-09-09T18:19:18.919Z,17.90
2022-09-09T18:21:46.277Z,17.90
2022-09-09T18:24:16.133Z,17.90
2022-09-09T18:26:43.772Z,17.90
2022-09-09T18:29:13.409Z,17.90
2022-09-09T18:31:42.485Z,17.80
2022-09-09T18:34:11.794Z,17.80
2022-09-09T18:36:44.889Z,17.90
2022-09-09T18:39:15.208Z,17.80
2022-09-09T18:41:44.974Z,17.70
2022-09-09T18:44:17.450Z,17.60
2022-09-09T18:46:45.132Z,17.60
2022-09-09T18:49:12.724Z,17.70
2022-09-09T18:51:41.291Z,17.60
2022-09-09T18:54:12.501Z,17.50
2022-09-09T18:56:39.956Z,17.60
2022-09-09T18:59:08.746Z,17.50
2022-09-09T19:01:36.536Z,17.50
2022-09-09T19:04:06.084Z,17.50
2022-09-09T19:06:34.557Z,17.50
2022-09-09T19:09:03.527Z,17.40
2022-09-09T19:11:31.549Z,17.30
2022-09-09T19:14:04.394Z,17.30
2022-09-09T19:16:34.983Z,17.30
2022-09-09T19:19:07.779Z,17.30
2022-09-09T19:21:38.169Z,17.30
2022-09-09T19:24:15.554Z,17.20
2022-09-09T19:26:45.697Z,17.20
2022-09-09T19:29:19.330Z,17.10
2022-09-09T19:32:09.387Z,17.10
2022-09-09T19:34:34.218Z,17.00
2022-09-09T19:37:01.037Z,17.10
2022-09-09T19:39:27.898Z,17.00
2022-09-09T19:41:54.754Z,17.10
2022-09-09T19:44:22.658Z,17.00
2022-09-09T19:46:50.136Z,17.00
2022-09-09T19:49:17.317Z,17.10
2022-09-09T19:51:44.566Z,17.10
2022-09-09T19:54:14.175Z,17.10
2022-09-09T19:56:42.181Z,17.00
2022-09-09T19:59:11.101Z,16.80
2022-09-09T20:01:41.265Z,16.70
2022-09-09T20:04:09.089Z,16.70
2022-09-09T20:06:39.115Z,16.60
2022-09-09T20:09:07.823Z,16.60
2022-09-09T20:11:35.083Z,16.50
2022-09-09T20:14:02.112Z,16.50
2022-09-09T20:16:30.735Z,16.40
2022-09-09T20:19:01.017Z,16.40
2022-09-09T20:21:31.282Z,16.40
2022-09-09T20:24:00.451Z,16.30
2022-09-09T20:26:30.307Z,16.30
2022-09-09T20:28:57.210Z,16.30
2022-09-09T20:31:29.300Z,16.20
2022-09-09T20:33:56.625Z,16.20
2022-09-09T20:36:26.969Z,16.20
2022-09-09T20:39:15.514Z,16.20
2022-09-09T20:41:44.436Z,16.20
2022-09-09T20:44:20.144Z,16.20
2022-09-09T20:46:49.251Z,16.30
2022-09-09T20:49:21.942Z,16.30
2022-09-09T20:51:50.482Z,16.30
2022-09-09T20:54:24.798Z,16.30
2022-09-09T20:56:53.438Z,16.30
2022-09-09T20:59:25.944Z,16.20
2022-09-09T21:01:53.606Z,16.20
2022-09-09T21:04:21.927Z,16.20
2022-09-09T21:06:50.307Z,16.30
2022-09-09T21:09:17.990Z,16.30
2022-09-09T21:11:45.035Z,16.30
2022-09-09T21:14:12.585Z,16.30
2022-09-09T21:16:39.533Z,16.20
2022-09-09T21:19:06.858Z,16.20
2022-09-09T21:21:33.907Z,16.10
2022-09-09T21:24:00.870Z,16.10
2022-09-09T21:26:28.199Z,16.20
2022-09-09T21:28:55.973Z,16.10
2022-09-09T21:31:27.960Z,16.10
2022-09-09T21:33:58.445Z,16.30
2022-09-09T21:36:27.232Z,16.20
2022-09-09T21:38:54.045Z,16.20
2022-09-09T21:41:21.299Z,16.30
2022-09-09T21:43:52.809Z,16.20
2022-09-09T21:46:20.021Z,16.20
2022-09-09T21:48:47.180Z,16.20
2022-09-09T21:51:16.268Z,16.20
2022-09-09T21:53:43.719Z,16.20
2022-09-09T21:56:13.818Z,16.30
2022-09-09T21:58:41.814Z,16.30
2022-09-09T22:01:11.166Z,16.30
2022-09-09T22:03:39.100Z,16.30
2022-09-09T22:06:10.448Z,16.20
2022-09-09T22:08:37.574Z,16.30
2022-09-09T22:11:15.595Z,16.20
2022-09-09T22:13:44.761Z,16.20
2022-09-09T22:16:14.425Z,16.20
2022-09-09T22:18:42.398Z,16.20
2022-09-09T22:21:18.233Z,16.20
2022-09-09T22:23:48.018Z,16.30
2022-09-09T22:26:15.229Z,16.30
2022-09-09T22:28:42.063Z,16.20
2022-09-09T22:31:08.962Z,16.20
2022-09-09T22:33:37.189Z,16.20
2022-09-09T22:36:05.032Z,16.20
2022-09-09T22:38:34.811Z,16.40
2022-09-09T22:41:02.993Z,16.40
2022-09-09T22:43:30.934Z,16.30
2022-09-09T22:45:57.916Z,16.40
2022-09-09T22:48:25.044Z,16.30
2022-09-09T22:50:51.844Z,16.20
2022-09-09T22:53:19.200Z,16.20
2022-09-09T22:56:00.635Z,16.30
2022-09-09T22:58:30.057Z,16.30
2022-09-09T23:00:58.821Z,16.40
2022-09-09T23:03:30.605Z,16.30
2022-09-09T23:06:02.121Z,16.20
2022-09-09T23:08:35.614Z,16.30
2022-09-09T23:11:11.132Z,16.30
2022-09-09T23:13:43.235Z,16.40
2022-09-09T23:16:18.785Z,16.30
2022-09-09T23:18:46.961Z,16.50
2022-09-09T23:21:15.255Z,16.40
2022-09-09T23:23:43.165Z,16.40
2022-09-09T23:26:12.724Z,16.40
2022-09-09T23:28:43.668Z,16.40
2022-09-09T23:31:15.986Z,16.30
2022-09-09T23:33:44.240Z,16.30
2022-09-09T23:36:14.388Z,16.30
2022-09-09T23:38:41.777Z,16.30
2022-09-09T23:41:12.134Z,16.30
2022-09-09T23:43:39.671Z,16.30
2022-09-09T23:46:12.374Z,16.30
2022-09-09T23:48:39.779Z,16.40
2022-09-09T23:51:09.625Z,16.30
2022-09-09T23:53:37.445Z,16.30
2022-09-09T23:56:05.243Z,16.40
2022-09-09T23:58:33.400Z,16.40
